sensor_id;sensor_type;location;lat;lon;timestamp;temperature;humidity
4187;DHT22;2107;52.306;10.484;2022-12-18T00:00:56;-6.50;99.90
4187;DHT22;2107;52.306;10.484;2022-12-18T00:03:22;-6.50;99.90
4187;DHT22;2107;52.306;10.484;2022-12-18T00:05:50;-6.60;99.90
4187;DHT22;2107;52.306;10.484;2022-12-18T00:08:18;-6.70;99.90
4187;DHT22;2107;52.306;10.484;2022-12-18T00:10:46;-6.70;99.90
4187;DHT22;2107;52.306;10.484;2022-12-18T00:13:13;-6.80;99.90
4187;DHT22;2107;52.306;10.484;2022-12-18T00:15:40;-6.80;99.90
4187;DHT22;2107;52.306;10.484;2022-12-18T00:18:07;-6.90;99.90
4187;DHT22;2107;52.306;10.484;2022-12-18T00:20:36;-6.90;99.90
4187;DHT22;2107;52.306;10.484;2022-12-18T00:23:04;-6.90;99.90
4187;DHT22;2107;52.306;10.484;2022-12-18T00:25:32;-7.00;99.90
4187;DHT22;2107;52.306;10.484;2022-12-18T00:28:01;-7.00;99.90
4187;DHT22;2107;52.306;10.484;2022-12-18T00:30:29;-7.00;99.90
4187;DHT22;2107;52.306;10.484;2022-12-18T00:32:57;-7.10;99.90
4187;DHT22;2107;52.306;10.484;2022-12-18T00:35:24;-7.20;99.90
4187;DHT22;2107;52.306;10.484;2022-12-18T00:37:50;-7.20;99.90
4187;DHT22;2107;52.306;10.484;2022-12-18T00:40:17;-7.10;99.90
4187;DHT22;2107;52.306;10.484;2022-12-18T00:42:44;-7.10;99.90
4187;DHT22;2107;52.306;10.484;2022-12-18T00:45:24;-7.10;99.90
4187;DHT22;2107;52.306;10.484;2022-12-18T00:47:51;-7.10;99.90
4187;DHT22;2107;52.306;10.484;2022-12-18T00:50:18;-7.20;99.90
4187;DHT22;2107;52.306;10.484;2022-12-18T00:52:45;-7.20;99.90
4187;DHT22;2107;52.306;10.484;2022-12-18T00:55:13;-7.20;99.90
4187;DHT22;2107;52.306;10.484;2022-12-18T00:57:40;-7.30;99.90
4187;DHT22;2107;52.306;10.484;2022-12-18T01:00:10;-7.30;99.90
4187;DHT22;2107;52.306;10.484;2022-12-18T01:02:40;-7.30;99.90
4187;DHT22;2107;52.306;10.484;2022-12-18T01:05:08;-7.30;99.90
4187;DHT22;2107;52.306;10.484;2022-12-18T01:07:35;-7.40;99.90
4187;DHT22;2107;52.306;10.484;2022-12-18T01:10:02;-7.50;99.90
4187;DHT22;2107;52.306;10.484;2022-12-18T01:12:29;-7.50;99.90
4187;DHT22;2107;52.306;10.484;2022-12-18T01:14:56;-7.60;99.90
4187;DHT22;2107;52.306;10.484;2022-12-18T01:17:23;-7.60;99.90
4187;DHT22;2107;52.306;10.484;2022-12-18T01:19:51;-7.70;99.90
4187;DHT22;2107;52.306;10.484;2022-12-18T01:22:18;-7.80;99.90
4187;DHT22;2107;52.306;10.484;2022-12-18T01:24:45;-7.80;99.90
4187;DHT22;2107;52.306;10.484;2022-12-18T01:27:12;-7.80;99.90
4187;DHT22;2107;52.306;10.484;2022-12-18T01:29:39;-7.80;99.90
4187;DHT22;2107;52.306;10.484;2022-12-18T01:32:05;-7.80;99.90
4187;DHT22;2107;52.306;10.484;2022-12-18T01:34:32;-7.80;99.90
4187;DHT22;2107;52.306;10.484;2022-12-18T01:37:02;-7.90;99.90
4187;DHT22;2107;52.306;10.484;2022-12-18T01:39:29;-7.90;99.90
4187;DHT22;2107;52.306;10.484;2022-12-18T01:41:57;-8.00;99.90
4187;DHT22;2107;52.306;10.484;2022-12-18T01:44:58;-8.20;99.90
4187;DHT22;2107;52.306;10.484;2022-12-18T01:47:27;-8.20;99.90
4187;DHT22;2107;52.306;10.484;2022-12-18T01:49:56;-8.20;99.90
4187;DHT22;2107;52.306;10.484;2022-12-18T01:52:27;-8.20;99.90
4187;DHT22;2107;52.306;10.484;2022-12-18T01:54:55;-8.20;99.90
4187;DHT22;2107;52.306;10.484;2022-12-18T01:57:23;-8.20;99.90
4187;DHT22;2107;52.306;10.484;2022-12-18T01:59:53;-8.30;99.90
4187;DHT22;2107;52.306;10.484;2022-12-18T02:02:20;-8.30;99.90
4187;DHT22;2107;52.306;10.484;2022-12-18T02:04:47;-8.40;99.90
4187;DHT22;2107;52.306;10.484;2022-12-18T02:07:19;-8.40;99.90
4187;DHT22;2107;52.306;10.484;2022-12-18T02:09:51;-8.30;99.90
4187;DHT22;2107;52.306;10.484;2022-12-18T02:12:23;-8.20;99.90
4187;DHT22;2107;52.306;10.484;2022-12-18T02:14:57;-8.10;99.90
4187;DHT22;2107;52.306;10.484;2022-12-18T02:17:31;-8.10;99.90
4187;DHT22;2107;52.306;10.484;2022-12-18T02:20:09;-8.10;99.90
4187;DHT22;2107;52.306;10.484;2022-12-18T02:22:46;-8.20;99.90
4187;DHT22;2107;52.306;10.484;2022-12-18T02:25:30;-8.30;99.90
4187;DHT22;2107;52.306;10.484;2022-12-18T02:28:04;-8.30;99.90
4187;DHT22;2107;52.306;10.484;2022-12-18T02:30:34;-8.40;99.90
4187;DHT22;2107;52.306;10.484;2022-12-18T02:33:03;-8.50;99.90
4187;DHT22;2107;52.306;10.484;2022-12-18T02:35:31;-8.50;99.90
4187;DHT22;2107;52.306;10.484;2022-12-18T02:37:59;-8.30;99.90
4187;DHT22;2107;52.306;10.484;2022-12-18T02:40:27;-8.40;99.90
4187;DHT22;2107;52.306;10.484;2022-12-18T02:42:55;-8.40;99.90
4187;DHT22;2107;52.306;10.484;2022-12-18T02:45:23;-8.50;99.90
4187;DHT22;2107;52.306;10.484;2022-12-18T02:47:50;-8.40;99.90
4187;DHT22;2107;52.306;10.484;2022-12-18T02:50:22;-8.40;99.90
4187;DHT22;2107;52.306;10.484;2022-12-18T02:52:55;-8.50;99.90
4187;DHT22;2107;52.306;10.484;2022-12-18T02:55:36;-8.50;99.90
4187;DHT22;2107;52.306;10.484;2022-12-18T02:58:13;-8.50;99.90
4187;DHT22;2107;52.306;10.484;2022-12-18T03:00:46;-8.50;99.90
4187;DHT22;2107;52.306;10.484;2022-12-18T03:03:19;-8.40;99.90
4187;DHT22;2107;52.306;10.484;2022-12-18T03:05:50;-8.60;99.90
4187;DHT22;2107;52.306;10.484;2022-12-18T03:08:22;-8.50;99.90
4187;DHT22;2107;52.306;10.484;2022-12-18T03:10:54;-8.40;99.90
4187;DHT22;2107;52.306;10.484;2022-12-18T03:13:30;-8.40;99.90
4187;DHT22;2107;52.306;10.484;2022-12-18T03:16:00;-8.50;99.90
4187;DHT22;2107;52.306;10.484;2022-12-18T03:18:32;-8.60;99.90
4187;DHT22;2107;52.306;10.484;2022-12-18T03:21:04;-8.50;99.90
4187;DHT22;2107;52.306;10.484;2022-12-18T03:23:36;-8.70;99.90
4187;DHT22;2107;52.306;10.484;2022-12-18T03:26:07;-8.70;99.90
4187;DHT22;2107;52.306;10.484;2022-12-18T03:28:38;-8.70;99.90
4187;DHT22;2107;52.306;10.484;2022-12-18T03:31:09;-8.60;99.90
4187;DHT22;2107;52.306;10.484;2022-12-18T03:33:39;-8.70;99.90
4187;DHT22;2107;52.306;10.484;2022-12-18T03:36:08;-8.70;99.90
4187;DHT22;2107;52.306;10.484;2022-12-18T03:38:35;-8.70;99.90
4187;DHT22;2107;52.306;10.484;2022-12-18T03:41:07;-8.60;99.90
4187;DHT22;2107;52.306;10.484;2022-12-18T03:43:44;-8.50;99.90
4187;DHT22;2107;52.306;10.484;2022-12-18T03:46:23;-8.70;99.90
4187;DHT22;2107;52.306;10.484;2022-12-18T03:48:55;-8.70;99.90
4187;DHT22;2107;52.306;10.484;2022-12-18T03:51:26;-8.60;99.90
4187;DHT22;2107;52.306;10.484;2022-12-18T03:53:57;-8.60;99.90
4187;DHT22;2107;52.306;10.484;2022-12-18T03:56:28;-8.60;99.90
4187;DHT22;2107;52.306;10.484;2022-12-18T03:58:57;-8.70;99.90
4187;DHT22;2107;52.306;10.484;2022-12-18T04:01:30;-8.90;99.90
4187;DHT22;2107;52.306;10.484;2022-12-18T04:03:59;-9.00;99.90
4187;DHT22;2107;52.306;10.484;2022-12-18T04:06:26;-9.10;99.90
4187;DHT22;2107;52.306;10.484;2022-12-18T04:08:54;-9.10;99.90
4187;DHT22;2107;52.306;10.484;2022-12-18T04:11:22;-9.10;99.90
4187;DHT22;2107;52.306;10.484;2022-12-18T04:13:49;-9.20;99.90
4187;DHT22;2107;52.306;10.484;2022-12-18T04:16:16;-9.30;99.90
4187;DHT22;2107;52.306;10.484;2022-12-18T04:18:44;-9.30;99.90
4187;DHT22;2107;52.306;10.484;2022-12-18T04:21:11;-9.30;99.90
4187;DHT22;2107;52.306;10.484;2022-12-18T04:23:38;-9.40;99.90
4187;DHT22;2107;52.306;10.484;2022-12-18T04:26:04;-9.50;99.90
4187;DHT22;2107;52.306;10.484;2022-12-18T04:28:31;-9.50;99.90
4187;DHT22;2107;52.306;10.484;2022-12-18T04:30:58;-9.60;99.90
4187;DHT22;2107;52.306;10.484;2022-12-18T04:33:25;-9.60;99.90
4187;DHT22;2107;52.306;10.484;2022-12-18T04:35:53;-9.50;99.90
4187;DHT22;2107;52.306;10.484;2022-12-18T04:38:20;-9.60;99.90
4187;DHT22;2107;52.306;10.484;2022-12-18T04:40:47;-9.70;99.90
4187;DHT22;2107;52.306;10.484;2022-12-18T04:43:13;-9.70;99.90
4187;DHT22;2107;52.306;10.484;2022-12-18T04:45:40;-9.70;99.90
4187;DHT22;2107;52.306;10.484;2022-12-18T04:48:07;-9.70;99.90
4187;DHT22;2107;52.306;10.484;2022-12-18T04:50:34;-9.70;99.90
4187;DHT22;2107;52.306;10.484;2022-12-18T04:53:02;-9.60;99.90
4187;DHT22;2107;52.306;10.484;2022-12-18T04:55:29;-9.40;99.90
4187;DHT22;2107;52.306;10.484;2022-12-18T04:57:56;-9.30;99.90
4187;DHT22;2107;52.306;10.484;2022-12-18T05:00:23;-9.10;99.90
4187;DHT22;2107;52.306;10.484;2022-12-18T05:02:50;-9.00;99.90
4187;DHT22;2107;52.306;10.484;2022-12-18T05:05:17;-9.00;99.90
4187;DHT22;2107;52.306;10.484;2022-12-18T05:07:44;-8.90;99.90
4187;DHT22;2107;52.306;10.484;2022-12-18T05:10:12;-8.90;99.90
4187;DHT22;2107;52.306;10.484;2022-12-18T05:12:39;-8.80;99.90
4187;DHT22;2107;52.306;10.484;2022-12-18T05:15:24;-8.80;99.90
4187;DHT22;2107;52.306;10.484;2022-12-18T05:17:50;-8.80;99.90
4187;DHT22;2107;52.306;10.484;2022-12-18T05:20:17;-8.90;99.90
4187;DHT22;2107;52.306;10.484;2022-12-18T05:22:45;-8.90;99.90
4187;DHT22;2107;52.306;10.484;2022-12-18T05:25:13;-8.90;99.90
4187;DHT22;2107;52.306;10.484;2022-12-18T05:27:40;-8.90;99.90
4187;DHT22;2107;52.306;10.484;2022-12-18T05:30:08;-8.90;99.90
4187;DHT22;2107;52.306;10.484;2022-12-18T05:32:35;-8.80;99.90
4187;DHT22;2107;52.306;10.484;2022-12-18T05:35:03;-8.80;99.90
4187;DHT22;2107;52.306;10.484;2022-12-18T05:37:30;-8.70;99.90
4187;DHT22;2107;52.306;10.484;2022-12-18T05:39:57;-8.70;99.90
4187;DHT22;2107;52.306;10.484;2022-12-18T05:42:25;-8.90;99.90
4187;DHT22;2107;52.306;10.484;2022-12-18T05:44:52;-9.00;99.90
4187;DHT22;2107;52.306;10.484;2022-12-18T05:47:19;-9.00;99.90
4187;DHT22;2107;52.306;10.484;2022-12-18T05:49:46;-9.10;99.90
4187;DHT22;2107;52.306;10.484;2022-12-18T05:52:12;-9.10;99.90
4187;DHT22;2107;52.306;10.484;2022-12-18T05:54:39;-9.10;99.90
4187;DHT22;2107;52.306;10.484;2022-12-18T05:57:06;-9.20;99.90
4187;DHT22;2107;52.306;10.484;2022-12-18T05:59:34;-9.30;99.90
4187;DHT22;2107;52.306;10.484;2022-12-18T06:02:01;-9.20;99.90
4187;DHT22;2107;52.306;10.484;2022-12-18T06:04:29;-9.00;99.90
4187;DHT22;2107;52.306;10.484;2022-12-18T06:06:56;-9.00;99.90
4187;DHT22;2107;52.306;10.484;2022-12-18T06:09:23;-8.70;99.90
4187;DHT22;2107;52.306;10.484;2022-12-18T06:11:51;-8.90;99.90
4187;DHT22;2107;52.306;10.484;2022-12-18T06:14:18;-9.00;99.90
4187;DHT22;2107;52.306;10.484;2022-12-18T06:16:46;-9.00;99.90
4187;DHT22;2107;52.306;10.484;2022-12-18T06:19:15;-9.00;99.90
4187;DHT22;2107;52.306;10.484;2022-12-18T06:21:42;-9.00;99.90
4187;DHT22;2107;52.306;10.484;2022-12-18T06:24:09;-9.00;99.90
4187;DHT22;2107;52.306;10.484;2022-12-18T06:26:37;-9.10;99.90
4187;DHT22;2107;52.306;10.484;2022-12-18T06:29:04;-9.20;99.90
4187;DHT22;2107;52.306;10.484;2022-12-18T06:31:31;-9.40;99.90
4187;DHT22;2107;52.306;10.484;2022-12-18T06:34:01;-9.50;99.90
4187;DHT22;2107;52.306;10.484;2022-12-18T06:36:28;-9.40;99.90
4187;DHT22;2107;52.306;10.484;2022-12-18T06:38:58;-9.20;99.90
4187;DHT22;2107;52.306;10.484;2022-12-18T06:41:25;-9.10;99.90
4187;DHT22;2107;52.306;10.484;2022-12-18T06:43:52;-9.10;99.90
4187;DHT22;2107;52.306;10.484;2022-12-18T06:46:19;-8.90;99.90
4187;DHT22;2107;52.306;10.484;2022-12-18T06:48:49;-8.80;99.90
4187;DHT22;2107;52.306;10.484;2022-12-18T06:51:19;-8.70;99.90
4187;DHT22;2107;52.306;10.484;2022-12-18T06:53:46;-8.80;99.90
4187;DHT22;2107;52.306;10.484;2022-12-18T06:56:14;-8.90;99.90
4187;DHT22;2107;52.306;10.484;2022-12-18T06:58:41;-8.90;99.90
4187;DHT22;2107;52.306;10.484;2022-12-18T07:01:09;-9.00;99.90
4187;DHT22;2107;52.306;10.484;2022-12-18T07:03:36;-9.10;99.90
4187;DHT22;2107;52.306;10.484;2022-12-18T07:06:03;-9.20;99.90
4187;DHT22;2107;52.306;10.484;2022-12-18T07:08:32;-9.30;99.90
4187;DHT22;2107;52.306;10.484;2022-12-18T07:10:59;-9.30;99.90
4187;DHT22;2107;52.306;10.484;2022-12-18T07:13:29;-9.50;99.90
4187;DHT22;2107;52.306;10.484;2022-12-18T07:16:03;-9.60;99.90
4187;DHT22;2107;52.306;10.484;2022-12-18T07:18:30;-9.70;99.90
4187;DHT22;2107;52.306;10.484;2022-12-18T07:20:57;-9.60;99.90
4187;DHT22;2107;52.306;10.484;2022-12-18T07:23:24;-9.50;99.90
4187;DHT22;2107;52.306;10.484;2022-12-18T07:25:52;-9.50;99.90
4187;DHT22;2107;52.306;10.484;2022-12-18T07:28:19;-9.40;99.90
4187;DHT22;2107;52.306;10.484;2022-12-18T07:30:45;-9.50;99.90
4187;DHT22;2107;52.306;10.484;2022-12-18T07:33:12;-9.50;99.90
4187;DHT22;2107;52.306;10.484;2022-12-18T07:35:39;-9.50;99.90
4187;DHT22;2107;52.306;10.484;2022-12-18T07:38:06;-9.60;99.90
4187;DHT22;2107;52.306;10.484;2022-12-18T07:40:33;-9.60;99.90
4187;DHT22;2107;52.306;10.484;2022-12-18T07:43:01;-9.60;99.90
4187;DHT22;2107;52.306;10.484;2022-12-18T07:45:28;-9.60;99.90
4187;DHT22;2107;52.306;10.484;2022-12-18T07:47:57;-9.50;99.90
4187;DHT22;2107;52.306;10.484;2022-12-18T07:50:24;-9.60;99.90
4187;DHT22;2107;52.306;10.484;2022-12-18T07:52:51;-9.30;99.90
4187;DHT22;2107;52.306;10.484;2022-12-18T07:55:18;-9.00;99.90
4187;DHT22;2107;52.306;10.484;2022-12-18T07:57:45;-8.60;99.90
4187;DHT22;2107;52.306;10.484;2022-12-18T08:00:14;-8.50;99.90
4187;DHT22;2107;52.306;10.484;2022-12-18T08:02:41;-8.40;99.90
4187;DHT22;2107;52.306;10.484;2022-12-18T08:05:08;-8.40;99.90
4187;DHT22;2107;52.306;10.484;2022-12-18T08:07:35;-8.50;99.90
4187;DHT22;2107;52.306;10.484;2022-12-18T08:10:02;-8.30;99.90
4187;DHT22;2107;52.306;10.484;2022-12-18T08:12:29;-7.90;99.90
4187;DHT22;2107;52.306;10.484;2022-12-18T08:14:56;-7.60;99.90
4187;DHT22;2107;52.306;10.484;2022-12-18T08:17:24;-7.50;99.90
4187;DHT22;2107;52.306;10.484;2022-12-18T08:19:51;-7.20;99.90
4187;DHT22;2107;52.306;10.484;2022-12-18T08:22:18;-7.50;99.90
4187;DHT22;2107;52.306;10.484;2022-12-18T08:24:46;-7.70;99.90
4187;DHT22;2107;52.306;10.484;2022-12-18T08:27:12;-7.70;99.90
4187;DHT22;2107;52.306;10.484;2022-12-18T08:29:39;-7.60;99.90
4187;DHT22;2107;52.306;10.484;2022-12-18T08:32:06;-7.60;99.90
4187;DHT22;2107;52.306;10.484;2022-12-18T08:34:35;-7.60;99.90
4187;DHT22;2107;52.306;10.484;2022-12-18T08:37:02;-7.50;99.90
4187;DHT22;2107;52.306;10.484;2022-12-18T08:39:29;-7.20;99.90
4187;DHT22;2107;52.306;10.484;2022-12-18T08:41:55;-6.80;99.90
4187;DHT22;2107;52.306;10.484;2022-12-18T08:44:40;-6.60;99.90
4187;DHT22;2107;52.306;10.484;2022-12-18T08:47:07;-6.90;99.90
4187;DHT22;2107;52.306;10.484;2022-12-18T08:49:35;-6.70;99.90
4187;DHT22;2107;52.306;10.484;2022-12-18T08:52:03;-6.70;99.90
4187;DHT22;2107;52.306;10.484;2022-12-18T08:54:30;-6.50;99.90
4187;DHT22;2107;52.306;10.484;2022-12-18T08:56:57;-5.90;99.90
4187;DHT22;2107;52.306;10.484;2022-12-18T08:59:23;-5.60;99.90
4187;DHT22;2107;52.306;10.484;2022-12-18T09:01:56;-5.50;99.90
4187;DHT22;2107;52.306;10.484;2022-12-18T09:04:23;-5.00;99.90
4187;DHT22;2107;52.306;10.484;2022-12-18T09:06:51;-5.40;99.90
4187;DHT22;2107;52.306;10.484;2022-12-18T09:09:21;-5.50;99.90
4187;DHT22;2107;52.306;10.484;2022-12-18T09:11:48;-5.00;99.90
4187;DHT22;2107;52.306;10.484;2022-12-18T09:14:15;-4.50;99.90
4187;DHT22;2107;52.306;10.484;2022-12-18T09:16:42;-4.80;99.90
4187;DHT22;2107;52.306;10.484;2022-12-18T09:19:09;-4.40;99.90
4187;DHT22;2107;52.306;10.484;2022-12-18T09:21:36;-4.20;99.90
4187;DHT22;2107;52.306;10.484;2022-12-18T09:24:06;-3.90;99.90
4187;DHT22;2107;52.306;10.484;2022-12-18T09:26:33;-3.90;99.90
4187;DHT22;2107;52.306;10.484;2022-12-18T09:28:59;-4.40;99.90
4187;DHT22;2107;52.306;10.484;2022-12-18T09:31:26;-4.30;99.90
4187;DHT22;2107;52.306;10.484;2022-12-18T09:33:54;-4.10;99.90
4187;DHT22;2107;52.306;10.484;2022-12-18T09:36:21;-4.10;99.90
4187;DHT22;2107;52.306;10.484;2022-12-18T09:38:48;-4.40;99.90
4187;DHT22;2107;52.306;10.484;2022-12-18T09:41:36;-4.10;99.90
4187;DHT22;2107;52.306;10.484;2022-12-18T09:44:11;-3.80;99.90
4187;DHT22;2107;52.306;10.484;2022-12-18T09:46:43;-3.90;99.90
4187;DHT22;2107;52.306;10.484;2022-12-18T09:49:12;-3.40;99.90
4187;DHT22;2107;52.306;10.484;2022-12-18T09:51:43;-3.60;99.90
4187;DHT22;2107;52.306;10.484;2022-12-18T09:54:14;-3.70;99.90
4187;DHT22;2107;52.306;10.484;2022-12-18T09:56:44;-4.20;99.90
4187;DHT22;2107;52.306;10.484;2022-12-18T09:59:21;-4.50;99.90
4187;DHT22;2107;52.306;10.484;2022-12-18T10:01:49;-4.60;99.90
4187;DHT22;2107;52.306;10.484;2022-12-18T10:04:16;-4.60;99.90
4187;DHT22;2107;52.306;10.484;2022-12-18T10:06:46;-4.60;99.90
4187;DHT22;2107;52.306;10.484;2022-12-18T10:09:21;-4.20;99.90
4187;DHT22;2107;52.306;10.484;2022-12-18T10:11:57;-4.20;99.90
4187;DHT22;2107;52.306;10.484;2022-12-18T10:14:32;-4.30;99.90
4187;DHT22;2107;52.306;10.484;2022-12-18T10:17:07;-4.30;99.90
4187;DHT22;2107;52.306;10.484;2022-12-18T10:19:41;-4.10;99.90
4187;DHT22;2107;52.306;10.484;2022-12-18T10:22:22;-4.00;99.90
4187;DHT22;2107;52.306;10.484;2022-12-18T10:24:58;-3.90;99.90
4187;DHT22;2107;52.306;10.484;2022-12-18T10:27:29;-3.80;99.90
4187;DHT22;2107;52.306;10.484;2022-12-18T10:29:57;-3.60;99.90
4187;DHT22;2107;52.306;10.484;2022-12-18T10:32:27;-3.50;99.90
4187;DHT22;2107;52.306;10.484;2022-12-18T10:34:55;-3.40;99.90
4187;DHT22;2107;52.306;10.484;2022-12-18T10:37:24;-3.20;99.90
4187;DHT22;2107;52.306;10.484;2022-12-18T10:40:07;-3.00;99.90
4187;DHT22;2107;52.306;10.484;2022-12-18T10:42:36;-2.70;99.90
4187;DHT22;2107;52.306;10.484;2022-12-18T10:45:08;-2.50;99.90
4187;DHT22;2107;52.306;10.484;2022-12-18T10:47:36;-2.50;99.90
4187;DHT22;2107;52.306;10.484;2022-12-18T10:50:03;-2.50;99.90
4187;DHT22;2107;52.306;10.484;2022-12-18T10:52:30;-2.60;99.90
4187;DHT22;2107;52.306;10.484;2022-12-18T10:54:59;-2.60;99.90
4187;DHT22;2107;52.306;10.484;2022-12-18T10:57:33;-2.70;99.90
4187;DHT22;2107;52.306;10.484;2022-12-18T11:00:23;-2.60;99.90
4187;DHT22;2107;52.306;10.484;2022-12-18T11:02:51;-2.50;99.90
4187;DHT22;2107;52.306;10.484;2022-12-18T11:05:27;-2.50;99.90
4187;DHT22;2107;52.306;10.484;2022-12-18T11:07:54;-2.60;99.90
4187;DHT22;2107;52.306;10.484;2022-12-18T11:10:27;-2.60;99.90
4187;DHT22;2107;52.306;10.484;2022-12-18T11:12:55;-2.50;99.90
4187;DHT22;2107;52.306;10.484;2022-12-18T11:15:27;-2.30;99.90
4187;DHT22;2107;52.306;10.484;2022-12-18T11:17:55;-2.30;99.90
4187;DHT22;2107;52.306;10.484;2022-12-18T11:20:30;-2.00;99.90
4187;DHT22;2107;52.306;10.484;2022-12-18T11:22:59;-1.90;99.90
4187;DHT22;2107;52.306;10.484;2022-12-18T11:25:26;-1.80;99.90
4187;DHT22;2107;52.306;10.484;2022-12-18T11:27:58;-1.50;99.90
4187;DHT22;2107;52.306;10.484;2022-12-18T11:30:29;-1.40;99.90
4187;DHT22;2107;52.306;10.484;2022-12-18T11:33:00;-1.10;99.90
4187;DHT22;2107;52.306;10.484;2022-12-18T11:35:37;-1.60;99.90
4187;DHT22;2107;52.306;10.484;2022-12-18T11:38:13;-2.00;99.90
4187;DHT22;2107;52.306;10.484;2022-12-18T11:40:44;-1.50;99.90
4187;DHT22;2107;52.306;10.484;2022-12-18T11:43:15;-1.70;99.90
4187;DHT22;2107;52.306;10.484;2022-12-18T11:45:49;-1.30;99.90
4187;DHT22;2107;52.306;10.484;2022-12-18T11:48:22;-1.00;99.90
4187;DHT22;2107;52.306;10.484;2022-12-18T11:50:51;-1.00;99.90
4187;DHT22;2107;52.306;10.484;2022-12-18T11:53:19;-0.70;99.90
4187;DHT22;2107;52.306;10.484;2022-12-18T11:56:06;-0.50;99.90
4187;DHT22;2107;52.306;10.484;2022-12-18T11:58:46;-0.30;99.90
4187;DHT22;2107;52.306;10.484;2022-12-18T12:01:23;0.00;99.90
4187;DHT22;2107;52.306;10.484;2022-12-18T12:06:55;0.20;99.90
4187;DHT22;2107;52.306;10.484;2022-12-18T12:09:31;0.40;99.90
4187;DHT22;2107;52.306;10.484;2022-12-18T12:12:13;0.70;99.90
4187;DHT22;2107;52.306;10.484;2022-12-18T12:14:51;0.90;99.90
4187;DHT22;2107;52.306;10.484;2022-12-18T12:17:32;0.90;99.90
4187;DHT22;2107;52.306;10.484;2022-12-18T12:20:07;1.00;99.90
4187;DHT22;2107;52.306;10.484;2022-12-18T12:22:43;1.10;99.90
4187;DHT22;2107;52.306;10.484;2022-12-18T12:25:31;1.10;99.90
4187;DHT22;2107;52.306;10.484;2022-12-18T12:28:09;1.40;99.90
4187;DHT22;2107;52.306;10.484;2022-12-18T12:30:45;1.40;99.90
4187;DHT22;2107;52.306;10.484;2022-12-18T12:33:26;1.10;99.90
4187;DHT22;2107;52.306;10.484;2022-12-18T12:36:01;1.10;99.90
4187;DHT22;2107;52.306;10.484;2022-12-18T12:38:36;1.00;99.90
4187;DHT22;2107;52.306;10.484;2022-12-18T12:41:12;1.30;99.90
4187;DHT22;2107;52.306;10.484;2022-12-18T12:43:57;1.10;99.90
4187;DHT22;2107;52.306;10.484;2022-12-18T12:46:26;0.80;99.90
4187;DHT22;2107;52.306;10.484;2022-12-18T12:48:56;0.50;99.90
4187;DHT22;2107;52.306;10.484;2022-12-18T12:51:25;0.60;99.90
4187;DHT22;2107;52.306;10.484;2022-12-18T12:53:54;0.30;99.90
4187;DHT22;2107;52.306;10.484;2022-12-18T12:56:24;0.00;99.90
4187;DHT22;2107;52.306;10.484;2022-12-18T12:59:02;0.00;99.90
4187;DHT22;2107;52.306;10.484;2022-12-18T13:01:37;-0.10;99.90
4187;DHT22;2107;52.306;10.484;2022-12-18T13:04:19;-0.20;99.90
4187;DHT22;2107;52.306;10.484;2022-12-18T13:06:53;-0.20;99.90
4187;DHT22;2107;52.306;10.484;2022-12-18T13:09:23;-0.30;99.90
4187;DHT22;2107;52.306;10.484;2022-12-18T13:11:49;-0.50;99.90
4187;DHT22;2107;52.306;10.484;2022-12-18T13:14:36;-0.60;99.90
4187;DHT22;2107;52.306;10.484;2022-12-18T13:17:29;-0.70;99.90
4187;DHT22;2107;52.306;10.484;2022-12-18T13:20:10;-0.80;99.90
4187;DHT22;2107;52.306;10.484;2022-12-18T13:22:39;-1.10;99.90
4187;DHT22;2107;52.306;10.484;2022-12-18T13:28:12;-1.10;99.90
4187;DHT22;2107;52.306;10.484;2022-12-18T13:30:54;-1.20;99.90
4187;DHT22;2107;52.306;10.484;2022-12-18T13:33:48;-1.10;99.90
4187;DHT22;2107;52.306;10.484;2022-12-18T13:36:32;-1.10;99.90
4187;DHT22;2107;52.306;10.484;2022-12-18T13:39:33;-1.30;99.90
4187;DHT22;2107;52.306;10.484;2022-12-18T13:45:44;-1.60;99.90
4187;DHT22;2107;52.306;10.484;2022-12-18T13:48:20;-1.70;99.90
4187;DHT22;2107;52.306;10.484;2022-12-18T13:50:59;-1.60;99.90
4187;DHT22;2107;52.306;10.484;2022-12-18T13:53:32;-1.50;99.90
4187;DHT22;2107;52.306;10.484;2022-12-18T13:56:01;-1.70;99.90
4187;DHT22;2107;52.306;10.484;2022-12-18T13:58:28;-1.70;99.90
4187;DHT22;2107;52.306;10.484;2022-12-18T14:00:55;-1.70;99.90
4187;DHT22;2107;52.306;10.484;2022-12-18T14:03:27;-1.70;99.90
4187;DHT22;2107;52.306;10.484;2022-12-18T14:05:56;-1.60;99.90
4187;DHT22;2107;52.306;10.484;2022-12-18T14:08:30;-1.70;99.90
4187;DHT22;2107;52.306;10.484;2022-12-18T14:10:59;-1.80;99.90
4187;DHT22;2107;52.306;10.484;2022-12-18T14:13:31;-1.80;99.90
4187;DHT22;2107;52.306;10.484;2022-12-18T14:16:00;-1.90;99.90
4187;DHT22;2107;52.306;10.484;2022-12-18T14:18:33;-2.00;99.90
4187;DHT22;2107;52.306;10.484;2022-12-18T14:21:04;-2.00;99.90
4187;DHT22;2107;52.306;10.484;2022-12-18T14:23:35;-2.00;99.90
4187;DHT22;2107;52.306;10.484;2022-12-18T14:26:18;-2.10;99.90
4187;DHT22;2107;52.306;10.484;2022-12-18T14:28:46;-2.20;99.90
4187;DHT22;2107;52.306;10.484;2022-12-18T14:31:17;-2.20;99.90
4187;DHT22;2107;52.306;10.484;2022-12-18T14:33:45;-2.20;99.90
4187;DHT22;2107;52.306;10.484;2022-12-18T14:36:16;-2.30;99.90
4187;DHT22;2107;52.306;10.484;2022-12-18T14:38:49;-2.30;99.90
4187;DHT22;2107;52.306;10.484;2022-12-18T14:41:17;-2.30;99.90
4187;DHT22;2107;52.306;10.484;2022-12-18T14:43:46;-2.30;99.90
4187;DHT22;2107;52.306;10.484;2022-12-18T14:46:28;-2.30;99.90
4187;DHT22;2107;52.306;10.484;2022-12-18T14:48:55;-2.30;99.90
4187;DHT22;2107;52.306;10.484;2022-12-18T14:51:24;-2.10;99.90
4187;DHT22;2107;52.306;10.484;2022-12-18T14:53:57;-2.10;99.90
4187;DHT22;2107;52.306;10.484;2022-12-18T14:56:27;-2.20;99.90
4187;DHT22;2107;52.306;10.484;2022-12-18T14:58:57;-2.20;99.90
4187;DHT22;2107;52.306;10.484;2022-12-18T15:01:27;-2.30;99.90
4187;DHT22;2107;52.306;10.484;2022-12-18T15:03:55;-2.30;99.90
4187;DHT22;2107;52.306;10.484;2022-12-18T15:06:34;-2.40;99.90
4187;DHT22;2107;52.306;10.484;2022-12-18T15:09:04;-2.40;99.90
4187;DHT22;2107;52.306;10.484;2022-12-18T15:11:45;-2.40;99.90
4187;DHT22;2107;52.306;10.484;2022-12-18T15:14:23;-2.50;99.90
4187;DHT22;2107;52.306;10.484;2022-12-18T15:16:52;-2.40;99.90
4187;DHT22;2107;52.306;10.484;2022-12-18T15:19:20;-2.50;99.90
4187;DHT22;2107;52.306;10.484;2022-12-18T15:21:47;-2.60;99.90
4187;DHT22;2107;52.306;10.484;2022-12-18T15:24:21;-2.70;99.90
4187;DHT22;2107;52.306;10.484;2022-12-18T15:26:50;-2.70;99.90
4187;DHT22;2107;52.306;10.484;2022-12-18T15:29:19;-2.80;99.90
4187;DHT22;2107;52.306;10.484;2022-12-18T15:32:04;-2.90;99.90
4187;DHT22;2107;52.306;10.484;2022-12-18T15:34:32;-2.90;99.90
4187;DHT22;2107;52.306;10.484;2022-12-18T15:36:59;-3.00;99.90
4187;DHT22;2107;52.306;10.484;2022-12-18T15:39:27;-3.00;99.90
4187;DHT22;2107;52.306;10.484;2022-12-18T15:41:54;-3.00;99.90
4187;DHT22;2107;52.306;10.484;2022-12-18T15:44:39;-3.10;99.90
4187;DHT22;2107;52.306;10.484;2022-12-18T15:47:10;-3.20;99.90
4187;DHT22;2107;52.306;10.484;2022-12-18T15:49:38;-3.20;99.90
4187;DHT22;2107;52.306;10.484;2022-12-18T15:52:05;-3.20;99.90
4187;DHT22;2107;52.306;10.484;2022-12-18T15:54:34;-3.20;99.90
4187;DHT22;2107;52.306;10.484;2022-12-18T15:57:18;-3.30;99.90
4187;DHT22;2107;52.306;10.484;2022-12-18T15:59:51;-3.20;99.90
4187;DHT22;2107;52.306;10.484;2022-12-18T16:02:20;-3.10;99.90
4187;DHT22;2107;52.306;10.484;2022-12-18T16:04:49;-3.00;99.90
4187;DHT22;2107;52.306;10.484;2022-12-18T16:07:16;-3.00;99.90
4187;DHT22;2107;52.306;10.484;2022-12-18T16:09:48;-3.00;99.90
4187;DHT22;2107;52.306;10.484;2022-12-18T16:12:17;-2.80;99.90
4187;DHT22;2107;52.306;10.484;2022-12-18T16:14:45;-2.90;99.90
4187;DHT22;2107;52.306;10.484;2022-12-18T16:17:13;-3.00;99.90